Time;durP1;ratioP1;P1;durP2;ratioP2;P2;SDS_P1;SDS_P2;PMS_P1;PMS_P2;Temp;Humidity;BMP_temperature;BMP_pressure;BME280_temperature;BME280_humidity;BME280_pressure;Samples;Min_cycle;Max_cycle;Signal;HPM_P1;HPM_P2
2021/12/19 00:03:59;;;;;;;4.38;0.60;;;14.60;67.10;;;;;;4634878;31;20099;-74
2021/12/19 00:09:10;;;;;;;2.00;0.50;;;14.60;67.30;;;;;;4634225;31;20059;-74
2021/12/19 00:11:36;;;;;;;2.00;0.40;;;14.60;67.20;;;;;;4634554;31;20063;-75
2021/12/19 00:14:03;;;;;;;1.80;0.40;;;14.60;67.10;;;;;;4634395;31;20105;-74
2021/12/19 00:16:29;;;;;;;1.00;0.43;;;14.60;67.10;;;;;;4620096;31;20062;-75
2021/12/19 00:18:55;;;;;;;1.10;0.55;;;14.60;67.10;;;;;;4633847;31;20480;-74
2021/12/19 00:21:23;;;;;;;1.08;0.47;;;14.60;67.10;;;;;;4634296;31;20063;-74
2021/12/19 00:23:50;;;;;;;1.55;0.63;;;14.60;67.10;;;;;;4634265;31;20086;-74
2021/12/19 00:26:17;;;;;;;2.63;0.60;;;14.60;67.20;;;;;;4619278;31;20055;-74
2021/12/19 00:28:44;;;;;;;0.52;0.20;;;14.60;67.20;;;;;;4618623;31;20504;-74
2021/12/19 00:31:10;;;;;;;1.17;0.15;;;14.60;67.20;;;;;;4634116;31;20099;-73
2021/12/19 00:33:37;;;;;;;1.23;0.30;;;14.60;67.30;;;;;;4634320;31;20078;-75
2021/12/19 00:36:04;;;;;;;1.15;0.50;;;14.50;67.20;;;;;;4619434;31;20074;-74
2021/12/19 00:38:31;;;;;;;0.77;0.20;;;14.50;67.20;;;;;;4634468;31;20067;-75
2021/12/19 00:40:57;;;;;;;1.38;0.30;;;14.50;67.20;;;;;;4633949;31;20059;-74
2021/12/19 00:43:37;;;;;;;1.20;0.30;;;14.50;67.20;;;;;;4633883;31;20430;-74
2021/12/19 00:46:08;;;;;;;0.80;0.17;;;14.50;67.20;;;;;;4634252;31;20074;-73
2021/12/19 00:48:47;;;;;;;0.63;0.20;;;14.50;67.20;;;;;;4633929;31;20102;-73
2021/12/19 00:51:22;;;;;;;0.50;0.20;;;14.50;67.20;;;;;;4619315;31;20071;-74
2021/12/19 00:53:48;;;;;;;1.20;0.30;;;14.50;67.30;;;;;;4633999;31;20063;-76
2021/12/19 00:56:15;;;;;;;1.30;0.25;;;14.50;67.40;;;;;;4619633;31;20055;-75
2021/12/19 00:58:42;;;;;;;1.33;0.22;;;14.40;67.40;;;;;;4633582;30;20082;-73
2021/12/19 01:01:09;;;;;;;1.23;0.30;;;14.40;67.40;;;;;;4633517;31;20067;-73
2021/12/19 01:03:36;;;;;;;0.65;0.30;;;14.40;67.40;;;;;;4619052;31;20055;-75
2021/12/19 01:06:03;;;;;;;1.10;0.45;;;14.40;67.40;;;;;;4633731;31;20052;-73
2021/12/19 01:08:29;;;;;;;2.92;0.30;;;14.40;67.50;;;;;;4634333;31;20082;-74
2021/12/19 01:10:55;;;;;;;1.02;0.22;;;14.40;67.50;;;;;;4618639;31;20477;-75
2021/12/19 01:13:21;;;;;;;0.40;0.20;;;14.40;67.50;;;;;;4618869;31;20074;-74
2021/12/19 01:15:51;;;;;;;1.83;0.30;;;14.40;67.60;;;;;;4634135;31;20059;-74
2021/12/19 01:18:17;;;;;;;1.50;0.50;;;14.40;67.60;;;;;;4633518;31;20051;-76
2021/12/19 01:20:43;;;;;;;1.33;0.30;;;14.30;67.50;;;;;;4633811;31;20116;-74
2021/12/19 01:23:10;;;;;;;0.55;0.20;;;14.30;67.60;;;;;;4633642;31;20074;-73
2021/12/19 01:25:37;;;;;;;3.53;0.40;;;14.30;67.60;;;;;;4633750;31;20158;-74
2021/12/19 01:28:03;;;;;;;0.63;0.20;;;14.30;67.70;;;;;;4633371;31;20066;-74
2021/12/19 01:30:29;;;;;;;1.88;0.38;;;14.30;67.60;;;;;;4633294;31;20072;-74
2021/12/19 01:32:55;;;;;;;0.35;0.15;;;14.30;67.50;;;;;;4618852;31;20063;-74
2021/12/19 01:35:23;;;;;;;1.13;0.10;;;14.30;67.60;;;;;;4633564;31;20069;-75
2021/12/19 01:37:49;;;;;;;1.23;0.25;;;14.30;67.60;;;;;;4618713;31;20472;-75
2021/12/19 01:40:18;;;;;;;1.30;0.43;;;14.20;67.60;;;;;;4635283;31;20059;-74
2021/12/19 01:42:47;;;;;;;1.35;0.40;;;14.30;67.60;;;;;;4636831;31;20095;-73
2021/12/19 01:45:21;;;;;;;2.72;0.40;;;14.30;67.60;;;;;;4636999;31;20055;-75
2021/12/19 01:47:47;;;;;;;1.05;0.10;;;14.30;67.60;;;;;;4636756;31;20070;-75
2021/12/19 01:50:13;;;;;;;1.30;0.10;;;14.30;67.60;;;;;;4621937;31;20055;-74
2021/12/19 01:52:39;;;;;;;0.32;0.13;;;14.30;67.60;;;;;;4637060;31;20066;-73
2021/12/19 01:55:06;;;;;;;0.95;0.20;;;14.30;67.50;;;;;;4636436;31;20493;-74
2021/12/19 01:57:34;;;;;;;1.20;0.20;;;14.30;67.50;;;;;;4636847;31;20063;-73
2021/12/19 02:00:01;;;;;;;1.02;0.10;;;14.20;67.40;;;;;;4636381;31;20144;-73
2021/12/19 02:02:27;;;;;;;1.48;0.20;;;14.20;67.50;;;;;;4621617;31;20122;-73
2021/12/19 02:04:52;;;;;;;0.38;0.10;;;14.20;67.60;;;;;;4636669;31;20071;-75
2021/12/19 02:07:18;;;;;;;0.77;0.10;;;14.20;67.50;;;;;;4636483;31;20353;-74
2021/12/19 02:09:44;;;;;;;0.20;0.10;;;14.20;67.50;;;;;;4621396;31;20138;-74
2021/12/19 02:12:10;;;;;;;0.45;0.10;;;14.20;67.40;;;;;;4636664;31;20059;-76
2021/12/19 02:14:36;;;;;;;1.50;0.20;;;14.20;67.40;;;;;;4621498;31;20484;-74
2021/12/19 02:17:03;;;;;;;2.38;0.17;;;14.20;67.50;;;;;;4636222;31;20047;-73
2021/12/19 02:19:31;;;;;;;2.00;0.20;;;14.20;67.50;;;;;;4621500;31;20056;-75
2021/12/19 02:21:56;;;;;;;0.95;0.15;;;14.20;67.50;;;;;;4620993;31;20062;-74
2021/12/19 02:24:22;;;;;;;0.98;0.20;;;14.20;67.50;;;;;;4636337;31;20056;-76
2021/12/19 02:26:48;;;;;;;1.65;0.40;;;14.20;67.40;;;;;;4621888;31;20063;-74
2021/12/19 02:29:14;;;;;;;2.10;0.22;;;14.20;67.30;;;;;;4636175;31;20074;-74
2021/12/19 02:31:40;;;;;;;1.02;0.10;;;14.20;67.50;;;;;;4636230;31;20469;-74
2021/12/19 02:34:27;;;;;;;1.42;0.20;;;14.10;67.30;;;;;;4621379;31;20074;-76
2021/12/19 02:37:03;;;;;;;0.80;0.00;;;14.10;67.30;;;;;;4621351;31;20077;-74
2021/12/19 02:40:06;;;;;;;0.65;0.20;;;14.10;67.20;;;;;;4621327;31;20078;-74
2021/12/19 02:48:14;;;;;;;1.60;0.30;;;14.10;67.10;;;;;;4635689;31;20071;-73
2021/12/19 02:50:48;;;;;;;0.60;0.10;;;14.10;67.20;;;;;;4636036;31;20121;-74
2021/12/19 02:53:17;;;;;;;0.65;0.10;;;14.10;67.20;;;;;;4635044;31;20544;-72
2021/12/19 02:55:43;;;;;;;0.60;0.20;;;14.00;67.20;;;;;;4621222;31;20059;-73
2021/12/19 02:58:10;;;;;;;0.45;0.10;;;14.00;67.20;;;;;;4620967;31;20051;-73
2021/12/19 03:00:37;;;;;;;1.00;0.20;;;14.00;67.10;;;;;;4635535;31;20157;-76
2021/12/19 03:03:04;;;;;;;0.30;0.00;;;14.10;67.10;;;;;;4635426;31;20071;-73
2021/12/19 03:05:32;;;;;;;0.43;0.10;;;14.00;67.10;;;;;;4621055;31;20413;-75
2021/12/19 03:08:00;;;;;;;0.43;0.10;;;14.00;67.10;;;;;;4635285;31;20063;-73
2021/12/19 03:18:24;;;;;;;2.63;0.30;;;14.00;67.20;;;;;;4620348;31;20063;-73
2021/12/19 03:20:50;;;;;;;0.52;0.25;;;14.00;67.00;;;;;;4635093;31;20139;-73
2021/12/19 03:23:16;;;;;;;1.35;0.10;;;14.00;67.00;;;;;;4635173;31;20066;-74
2021/12/19 03:25:41;;;;;;;2.53;0.15;;;14.00;67.00;;;;;;4635245;31;20065;-75
2021/12/19 03:28:09;;;;;;;0.68;0.13;;;14.00;67.00;;;;;;4620736;31;20066;-73
2021/12/19 03:30:36;;;;;;;2.38;0.20;;;14.00;67.00;;;;;;4635229;31;20141;-74
2021/12/19 03:33:02;;;;;;;2.22;0.40;;;14.00;67.00;;;;;;4620327;31;20067;-73
2021/12/19 03:35:30;;;;;;;1.23;0.10;;;14.00;67.00;;;;;;4620378;31;20070;-73
2021/12/19 03:37:57;;;;;;;2.42;0.20;;;14.00;67.00;;;;;;4634892;31;20063;-74
2021/12/19 03:40:34;;;;;;;0.90;0.03;;;14.00;67.10;;;;;;4620304;31;20055;-74
2021/12/19 03:43:01;;;;;;;0.85;0.10;;;13.90;67.00;;;;;;4634536;31;20065;-76
2021/12/19 03:45:27;;;;;;;2.22;0.13;;;13.90;67.00;;;;;;4634793;31;20055;-75
2021/12/19 03:47:53;;;;;;;1.60;0.30;;;13.90;67.00;;;;;;4635008;31;20078;-75
2021/12/19 03:50:22;;;;;;;2.20;0.30;;;13.90;67.10;;;;;;4634847;31;20060;-73
2021/12/19 03:52:49;;;;;;;2.28;0.10;;;13.90;67.00;;;;;;4620165;31;20059;-76
2021/12/19 03:55:15;;;;;;;2.22;0.30;;;13.90;67.00;;;;;;4634792;31;20161;-74
2021/12/19 03:57:41;;;;;;;1.35;0.22;;;13.90;67.00;;;;;;4619783;31;20087;-75
2021/12/19 04:00:14;;;;;;;1.25;0.10;;;13.90;67.00;;;;;;4634369;30;20441;-73
2021/12/19 04:02:39;;;;;;;1.50;0.10;;;13.90;66.90;;;;;;4620231;31;20102;-75
2021/12/19 04:05:06;;;;;;;1.92;0.30;;;13.90;66.90;;;;;;4635028;31;20460;-74
2021/12/19 04:07:31;;;;;;;1.20;0.20;;;13.90;67.00;;;;;;4634980;31;20151;-74
2021/12/19 04:09:57;;;;;;;0.50;0.10;;;13.90;67.00;;;;;;4619643;31;20134;-74
2021/12/19 04:12:26;;;;;;;1.20;0.20;;;13.90;67.10;;;;;;4634279;31;20063;-74
2021/12/19 04:14:52;;;;;;;1.35;0.10;;;13.90;67.10;;;;;;4634271;31;20365;-75
2021/12/19 04:17:18;;;;;;;0.88;0.10;;;13.90;67.10;;;;;;4634616;31;20059;-75
2021/12/19 04:19:43;;;;;;;0.90;0.10;;;13.90;67.10;;;;;;4619810;31;20059;-73
2021/12/19 04:22:09;;;;;;;0.70;0.17;;;13.90;67.10;;;;;;4634163;31;20773;-73
2021/12/19 04:24:35;;;;;;;0.90;0.10;;;13.80;67.20;;;;;;4634984;31;20059;-75
2021/12/19 04:27:01;;;;;;;1.02;0.17;;;13.80;67.20;;;;;;4634305;31;20060;-73
2021/12/19 04:29:26;;;;;;;1.33;0.30;;;13.90;67.20;;;;;;4634483;31;20356;-73
2021/12/19 04:31:53;;;;;;;2.67;0.40;;;13.90;67.20;;;;;;4634326;31;20063;-75
2021/12/19 04:34:19;;;;;;;1.42;0.40;;;13.80;67.10;;;;;;4619057;31;20509;-75
2021/12/19 04:36:50;;;;;;;2.47;0.68;;;13.90;67.10;;;;;;4634359;31;20055;-75
2021/12/19 04:53:11;;;;;;;7.07;1.08;;;13.80;67.00;;;;;;4634116;31;20421;-73
2021/12/19 05:03:51;;;;;;;4.65;0.77;;;13.80;66.90;;;;;;4634346;31;20369;-74
2021/12/19 05:14:18;;;;;;;;;;;13.80;67.00;;;;;;4619450;30;20059;-74
2021/12/19 05:16:46;;;;;;;4.45;1.00;;;13.80;67.00;;;;;;4625150;30;19992;-73
2021/12/19 05:19:27;;;;;;;11.38;2.25;;;13.80;67.00;;;;;;4647521;30;20138;-73
2021/12/19 05:21:57;;;;;;;15.00;1.88;;;13.80;66.90;;;;;;4627185;30;20077;-75
2021/12/19 05:27:05;;;;;;;9.00;2.97;;;14.00;67.20;;;;;;4656010;30;20496;-73
2021/12/19 05:29:32;;;;;;;6.25;2.70;;;14.00;66.40;;;;;;4645309;30;20062;-72
2021/12/19 05:31:58;;;;;;;9.93;3.30;;;14.00;66.10;;;;;;4655851;30;20057;-74
2021/12/19 05:34:25;;;;;;;8.00;3.25;;;14.00;65.90;;;;;;4655309;30;20379;-72
2021/12/19 05:45:13;;;;;;;6.68;3.45;;;14.10;65.60;;;;;;4655441;30;20377;-73
2021/12/19 05:47:45;;;;;;;8.80;3.20;;;14.00;65.50;;;;;;4656151;30;20405;-73
2021/12/19 05:50:12;;;;;;;13.10;3.80;;;14.00;65.40;;;;;;4655914;30;20058;-73
2021/12/19 05:52:38;;;;;;;8.57;3.08;;;14.00;65.20;;;;;;4655575;30;20058;-72
2021/12/19 05:55:05;;;;;;;8.32;3.47;;;14.00;65.60;;;;;;4655759;30;20109;-71
2021/12/19 05:57:30;;;;;;;8.73;2.88;;;14.00;66.50;;;;;;4655352;30;20066;-73
2021/12/19 05:59:56;;;;;;;16.30;2.90;;;14.00;67.90;;;;;;4640457;30;20063;-71
2021/12/19 06:02:22;;;;;;;5.68;1.95;;;14.20;67.80;;;;;;4639061;30;20062;-73
2021/12/19 06:04:47;;;;;;;14.10;3.28;;;14.40;67.40;;;;;;4650803;30;20393;-76
2021/12/19 06:07:13;;;;;;;10.05;2.53;;;14.70;66.90;;;;;;4637705;31;20056;-71
2021/12/19 06:09:39;;;;;;;9.15;2.40;;;14.90;66.80;;;;;;4639239;31;20165;-72
2021/12/19 06:12:05;;;;;;;7.28;1.95;;;15.20;66.60;;;;;;4651852;30;20074;-71
2021/12/19 06:14:33;;;;;;;9.63;2.15;;;15.40;66.60;;;;;;4639204;30;20055;-73
2021/12/19 06:17:03;;;;;;;12.15;2.00;;;15.50;66.70;;;;;;4639414;30;20063;-71
2021/12/19 06:19:29;;;;;;;10.38;2.58;;;15.50;66.70;;;;;;4638960;30;20055;-73
2021/12/19 06:21:55;;;;;;;9.73;2.58;;;15.60;66.90;;;;;;4638469;31;20063;-72
2021/12/19 06:24:21;;;;;;;11.05;2.53;;;15.70;67.20;;;;;;4638474;31;20491;-71
2021/12/19 06:26:47;;;;;;;10.40;2.10;;;15.70;67.40;;;;;;4637256;30;20058;-76
2021/12/19 06:29:13;;;;;;;10.90;2.47;;;15.70;67.70;;;;;;4636055;30;20066;-71
2021/12/19 06:31:39;;;;;;;8.68;1.63;;;15.60;67.50;;;;;;4663472;30;20369;-70
2021/12/19 06:34:05;;;;;;;10.88;2.50;;;15.60;68.30;;;;;;4636019;30;20059;-71
2021/12/19 06:36:31;;;;;;;7.95;2.17;;;15.60;68.60;;;;;;4641795;30;20043;-72
2021/12/19 06:38:57;;;;;;;11.27;2.45;;;15.60;69.00;;;;;;4637883;30;20532;-72
2021/12/19 06:41:23;;;;;;;13.30;2.55;;;15.60;68.30;;;;;;4652231;30;20054;-71
2021/12/19 06:43:49;;;;;;;14.50;2.15;;;15.70;68.40;;;;;;4637366;30;20061;-71
2021/12/19 06:46:15;;;;;;;11.75;2.33;;;15.70;68.50;;;;;;4656628;30;20067;-75
2021/12/19 06:48:41;;;;;;;17.45;3.33;;;15.70;68.10;;;;;;4642327;30;20059;-72
2021/12/19 06:51:06;;;;;;;13.27;1.95;;;15.20;69.60;;;;;;4648346;30;20065;-71
2021/12/19 06:53:32;;;;;;;15.25;2.20;;;15.40;69.60;;;;;;4652447;30;20117;-74
2021/12/19 06:55:58;;;;;;;14.10;2.72;;;15.50;69.50;;;;;;4651567;30;20129;-72
2021/12/19 06:58:24;;;;;;;17.48;2.67;;;15.70;69.50;;;;;;4652163;30;20055;-72
2021/12/19 07:00:50;;;;;;;14.57;2.80;;;15.80;69.40;;;;;;4652420;30;20067;-70
2021/12/19 07:03:16;;;;;;;16.70;2.28;;;15.90;69.10;;;;;;4651419;30;20177;-77
2021/12/19 07:05:43;;;;;;;15.70;2.75;;;16.00;69.10;;;;;;4650159;30;20055;-75
2021/12/19 07:08:09;;;;;;;13.52;2.60;;;16.10;68.80;;;;;;4647250;30;20073;-72
2021/12/19 07:10:35;;;;;;;13.82;1.80;;;16.10;68.60;;;;;;4636983;30;20134;-72
2021/12/19 07:13:00;;;;;;;15.70;2.10;;;16.20;68.70;;;;;;4651707;30;20090;-72
2021/12/19 07:15:28;;;;;;;9.45;1.65;;;16.20;68.60;;;;;;4652300;30;20080;-72
2021/12/19 07:17:55;;;;;;;10.10;2.05;;;16.20;68.80;;;;;;4652182;30;20464;-73
2021/12/19 07:20:21;;;;;;;10.50;1.95;;;16.20;68.80;;;;;;4651811;30;20688;-74
2021/12/19 07:22:47;;;;;;;7.63;1.08;;;16.30;69.60;;;;;;4651160;30;20066;-73
2021/12/19 07:25:12;;;;;;;12.70;1.98;;;16.30;69.00;;;;;;4652315;30;20062;-73
2021/12/19 07:27:38;;;;;;;12.98;1.90;;;16.40;68.90;;;;;;4651997;30;20437;-72
2021/12/19 07:30:06;;;;;;;8.77;1.52;;;16.40;68.70;;;;;;4652163;30;20102;-74
2021/12/19 07:32:33;;;;;;;12.23;1.30;;;16.50;68.50;;;;;;4651624;30;20098;-72
2021/12/19 07:34:59;;;;;;;11.45;2.13;;;16.60;68.40;;;;;;4647860;30;20106;-73
2021/12/19 07:37:24;;;;;;;11.48;1.52;;;16.70;68.30;;;;;;4635142;31;20105;-71
2021/12/19 07:40:03;;;;;;;8.98;1.27;;;16.80;68.20;;;;;;4627524;30;20129;-73
2021/12/19 07:42:29;;;;;;;9.30;1.38;;;16.80;68.10;;;;;;4652045;30;20412;-74
2021/12/19 07:44:54;;;;;;;10.88;2.10;;;16.90;68.10;;;;;;4636594;30;20138;-74
2021/12/19 07:47:21;;;;;;;9.75;1.08;;;16.90;68.10;;;;;;4651276;30;20065;-74
2021/12/19 07:49:47;;;;;;;15.07;1.50;;;17.00;67.90;;;;;;4651058;30;20063;-72
2021/12/19 07:52:13;;;;;;;10.98;1.52;;;17.00;67.60;;;;;;4637338;30;20059;-74
2021/12/19 07:54:39;;;;;;;7.53;1.63;;;17.00;67.60;;;;;;4636715;30;20086;-72
2021/12/19 07:57:05;;;;;;;9.13;1.80;;;17.10;67.60;;;;;;4650486;30;20065;-73
2021/12/19 07:59:30;;;;;;;18.35;2.28;;;17.00;67.70;;;;;;4636056;30;20102;-74
2021/12/19 08:01:57;;;;;;;13.70;1.38;;;17.00;67.70;;;;;;4651894;30;20074;-72
2021/12/19 08:04:22;;;;;;;21.25;2.33;;;17.10;67.80;;;;;;4636592;30;20063;-72
2021/12/19 08:06:48;;;;;;;13.10;1.65;;;17.10;67.70;;;;;;4651350;30;20057;-74
2021/12/19 08:09:23;;;;;;;10.07;1.90;;;17.10;67.70;;;;;;4619681;31;20499;-74
2021/12/19 08:11:51;;;;;;;12.57;1.55;;;17.10;67.70;;;;;;4640839;30;20124;-71
2021/12/19 08:14:17;;;;;;;9.40;1.27;;;17.10;67.70;;;;;;4642083;30;20058;-74
2021/12/19 08:16:44;;;;;;;14.15;1.77;;;17.00;67.80;;;;;;4638009;30;20510;-71
2021/12/19 08:19:11;;;;;;;15.23;1.38;;;17.00;67.70;;;;;;4651233;30;20059;-73
2021/12/19 08:21:37;;;;;;;14.98;1.45;;;17.00;67.50;;;;;;4647379;30;20121;-74
2021/12/19 08:24:09;;;;;;;9.43;1.40;;;17.00;67.60;;;;;;4642163;30;20152;-74
2021/12/19 08:26:36;;;;;;;13.48;1.75;;;16.70;67.90;;;;;;4634396;31;20063;-74
2021/12/19 08:29:02;;;;;;;9.00;1.45;;;16.60;68.10;;;;;;4636405;30;20062;-75
2021/12/19 08:31:27;;;;;;;8.18;1.00;;;16.50;68.40;;;;;;4648012;30;20069;-75
2021/12/19 08:33:54;;;;;;;7.85;1.23;;;16.40;69.00;;;;;;4640465;30;20055;-72
2021/12/19 08:36:20;;;;;;;11.82;1.70;;;16.50;69.10;;;;;;4636664;30;20186;-78
2021/12/19 08:38:47;;;;;;;15.13;2.50;;;16.60;68.70;;;;;;4641011;30;20090;-79
2021/12/19 08:41:13;;;;;;;11.95;3.25;;;16.60;68.70;;;;;;4619123;31;20055;-71
2021/12/19 08:43:39;;;;;;;7.10;1.73;;;16.70;68.90;;;;;;4633887;31;20381;-69
2021/12/19 08:46:08;;;;;;;11.27;1.83;;;16.70;69.00;;;;;;4647247;30;20042;-71
2021/12/19 08:48:34;;;;;;;11.68;1.98;;;16.80;68.60;;;;;;4635761;30;20062;-71
2021/12/19 08:51:00;;;;;;;12.73;1.73;;;16.80;68.50;;;;;;4635006;30;20059;-74
2021/12/19 08:53:26;;;;;;;11.00;1.42;;;16.90;68.50;;;;;;4636014;30;20146;-75
2021/12/19 08:55:52;;;;;;;5.28;1.48;;;16.90;68.40;;;;;;4651075;30;20058;-72
2021/12/19 08:58:17;;;;;;;8.25;1.63;;;16.90;68.70;;;;;;4650762;30;20141;-73
2021/12/19 09:00:43;;;;;;;11.23;1.90;;;16.90;68.40;;;;;;4650444;30;20106;-74
2021/12/19 09:03:09;;;;;;;6.93;1.23;;;16.90;67.30;;;;;;4643019;30;20062;-75
2021/12/19 09:05:35;;;;;;;9.98;1.95;;;16.90;68.20;;;;;;4630441;30;20059;-70
2021/12/19 09:08:01;;;;;;;15.00;2.00;;;16.90;67.10;;;;;;4637993;30;20137;-74
2021/12/19 09:10:27;;;;;;;8.32;1.25;;;16.90;67.10;;;;;;4636572;30;20143;-76
2021/12/19 09:12:53;;;;;;;5.78;1.48;;;16.90;67.20;;;;;;4633812;31;20059;-74
2021/12/19 09:15:20;;;;;;;9.77;1.55;;;16.90;67.00;;;;;;4634079;31;20111;-74
2021/12/19 09:17:46;;;;;;;9.82;1.58;;;16.90;66.50;;;;;;4633926;31;20061;-75
2021/12/19 09:20:12;;;;;;;7.88;1.50;;;16.90;66.30;;;;;;4633895;31;20369;-76
2021/12/19 09:22:38;;;;;;;12.15;1.55;;;16.90;66.10;;;;;;4639909;30;20393;-74
2021/12/19 09:25:05;;;;;;;8.38;1.50;;;16.90;66.80;;;;;;4651126;30;20477;-75
2021/12/19 09:27:31;;;;;;;10.07;1.95;;;16.80;68.10;;;;;;4651012;30;20054;-74
2021/12/19 09:29:57;;;;;;;12.60;1.60;;;16.80;68.00;;;;;;4612741;31;20150;-68
2021/12/19 09:32:23;;;;;;;9.20;1.70;;;16.70;68.60;;;;;;4644236;30;20373;-72
2021/12/19 09:34:48;;;;;;;10.55;2.22;;;16.70;69.40;;;;;;4650203;30;20090;-72
2021/12/19 09:37:15;;;;;;;11.70;1.52;;;16.60;68.80;;;;;;4634196;30;20078;-69
2021/12/19 09:39:41;;;;;;;6.07;1.30;;;16.70;69.10;;;;;;4618737;31;20099;-75
2021/12/19 09:42:10;;;;;;;11.18;1.63;;;16.80;68.70;;;;;;4633352;31;20059;-72
2021/12/19 09:44:38;;;;;;;14.02;2.38;;;16.80;69.40;;;;;;4638833;30;20067;-71
2021/12/19 09:47:05;;;;;;;13.55;1.30;;;16.90;68.90;;;;;;4630917;30;20487;-73
2021/12/19 09:49:33;;;;;;;5.25;1.23;;;16.90;68.70;;;;;;4650276;30;20055;-72
2021/12/19 09:51:58;;;;;;;5.60;1.00;;;17.00;68.60;;;;;;4649705;30;20061;-72
2021/12/19 09:54:24;;;;;;;9.48;2.05;;;17.00;68.60;;;;;;4635338;30;20059;-74
2021/12/19 09:56:50;;;;;;;7.20;1.20;;;17.00;68.70;;;;;;4650819;30;20069;-72
2021/12/19 09:59:19;;;;;;;9.98;1.70;;;16.90;68.90;;;;;;4649869;30;20130;-74
2021/12/19 10:01:47;;;;;;;9.13;1.80;;;16.90;68.80;;;;;;4651448;30;20055;-75
2021/12/19 10:04:29;;;;;;;8.95;2.10;;;16.90;68.90;;;;;;4650481;30;20055;-74
2021/12/19 10:07:07;;;;;;;15.35;1.65;;;16.90;69.00;;;;;;4653205;30;20057;-72
2021/12/19 10:09:33;;;;;;;6.15;1.30;;;16.90;69.20;;;;;;4652626;30;20070;-74
2021/12/19 10:12:35;;;;;;;11.07;1.58;;;16.90;69.20;;;;;;4652879;30;20059;-72
2021/12/19 10:15:05;;;;;;;18.25;2.35;;;16.90;69.40;;;;;;4653281;30;20067;-72
2021/12/19 10:17:31;;;;;;;12.05;1.98;;;16.90;69.50;;;;;;4653291;30;20051;-73
2021/12/19 10:19:58;;;;;;;11.70;2.03;;;16.90;69.80;;;;;;4653016;30;20137;-72
2021/12/19 10:22:29;;;;;;;10.50;1.58;;;16.90;69.10;;;;;;4638842;30;20063;-72
2021/12/19 10:25:18;;;;;;;12.43;2.03;;;17.00;69.30;;;;;;4647914;30;20468;-70
2021/12/19 10:27:56;;;;;;;15.65;2.35;;;17.00;69.30;;;;;;4653683;30;20059;-74
2021/12/19 10:30:47;;;;;;;11.60;2.08;;;17.00;69.40;;;;;;4652666;30;20055;-73
2021/12/19 10:33:22;;;;;;;12.13;1.67;;;17.00;69.50;;;;;;4648768;30;20134;-73
2021/12/19 10:36:09;;;;;;;12.57;2.22;;;17.00;69.60;;;;;;4638167;30;20133;-72
2021/12/19 10:38:42;;;;;;;14.82;2.00;;;16.90;69.80;;;;;;4652886;30;20444;-73
2021/12/19 10:41:25;;;;;;;12.73;1.73;;;16.90;69.60;;;;;;4652745;30;20141;-72
2021/12/19 10:44:00;;;;;;;13.93;2.17;;;16.90;69.40;;;;;;4652001;30;20389;-72
2021/12/19 10:46:28;;;;;;;14.75;2.03;;;16.90;69.00;;;;;;4652605;30;20055;-73
2021/12/19 10:48:54;;;;;;;13.60;3.63;;;16.70;68.00;;;;;;4652538;30;20058;-72
2021/12/19 10:51:20;;;;;;;13.38;1.73;;;16.50;68.20;;;;;;4652625;30;20090;-73
2021/12/19 10:53:55;;;;;;;14.45;1.52;;;16.40;68.40;;;;;;4652475;30;20058;-71
2021/12/19 10:56:35;;;;;;;11.25;2.00;;;16.50;69.80;;;;;;4637808;30;20069;-73
2021/12/19 10:59:19;;;;;;;14.07;2.17;;;16.50;70.10;;;;;;4637668;30;20121;-74
2021/12/19 11:01:47;;;;;;;15.10;2.33;;;16.50;69.90;;;;;;4652529;30;20063;-73
2021/12/19 11:04:21;;;;;;;15.57;2.63;;;16.50;69.70;;;;;;4638234;30;20134;-73
2021/12/19 11:06:56;;;;;;;9.48;2.10;;;16.40;69.60;;;;;;4652358;30;20054;-72
2021/12/19 11:09:24;;;;;;;12.60;2.13;;;16.40;69.40;;;;;;4637512;30;20130;-72
2021/12/19 11:11:51;;;;;;;13.90;2.10;;;16.50;70.00;;;;;;4652176;30;20468;-71
2021/12/19 11:14:39;;;;;;;14.13;2.33;;;16.40;69.20;;;;;;4651606;30;20063;-72
2021/12/19 11:17:23;;;;;;;8.77;1.85;;;16.40;69.10;;;;;;4637198;30;20067;-73
2021/12/19 11:19:52;;;;;;;8.93;1.73;;;16.40;69.10;;;;;;4652879;30;20341;-74
2021/12/19 11:22:24;;;;;;;7.70;1.50;;;16.40;69.20;;;;;;4636888;30;20066;-72
2021/12/19 11:24:52;;;;;;;11.27;2.28;;;16.40;69.10;;;;;;4652347;30;20055;-73
2021/12/19 11:27:18;;;;;;;14.63;2.92;;;16.30;69.10;;;;;;4652546;30;20361;-71
2021/12/19 11:29:46;;;;;;;8.27;2.10;;;16.30;69.10;;;;;;4651892;30;20066;-71
2021/12/19 11:32:18;;;;;;;9.48;1.88;;;16.30;69.10;;;;;;4652132;30;20063;-72
2021/12/19 11:34:47;;;;;;;8.77;1.77;;;16.30;69.10;;;;;;4651870;30;20057;-72
2021/12/19 11:37:17;;;;;;;9.90;2.20;;;16.30;69.10;;;;;;4651901;30;20063;-72
2021/12/19 11:39:50;;;;;;;9.75;2.00;;;16.20;69.00;;;;;;4636749;30;20150;-71
2021/12/19 11:42:21;;;;;;;10.05;2.03;;;16.30;69.00;;;;;;4651881;30;20094;-72
2021/12/19 11:47:37;;;;;;;9.88;1.15;;;16.20;69.00;;;;;;4651456;30;20055;-74
2021/12/19 11:50:18;;;;;;;11.45;1.67;;;16.20;68.80;;;;;;4650834;30;20548;-72
2021/12/19 11:52:44;;;;;;;4.85;1.45;;;16.20;68.90;;;;;;4651057;30;20080;-72
2021/12/19 11:55:22;;;;;;;9.88;1.80;;;16.20;69.10;;;;;;4637021;30;20059;-71
2021/12/19 11:58:12;;;;;;;8.20;1.80;;;16.20;69.10;;;;;;4651804;30;20063;-72
2021/12/19 12:00:40;;;;;;;9.18;1.95;;;16.20;68.90;;;;;;4636283;30;20098;-74
2021/12/19 12:03:28;;;;;;;7.78;1.50;;;16.10;69.10;;;;;;4636238;30;20062;-72
2021/12/19 12:06:23;;;;;;;8.75;1.23;;;16.10;69.00;;;;;;4651208;30;20538;-72
2021/12/19 12:09:07;;;;;;;7.72;2.00;;;16.10;69.10;;;;;;4651270;30;20337;-73
2021/12/19 12:11:36;;;;;;;8.15;1.80;;;16.10;69.10;;;;;;4651231;30;20121;-72
2021/12/19 12:14:20;;;;;;;7.60;1.42;;;16.10;69.30;;;;;;4650620;30;20097;-72
2021/12/19 12:17:02;;;;;;;6.47;1.67;;;16.10;69.10;;;;;;4651014;30;20046;-72
2021/12/19 12:19:51;;;;;;;5.95;1.60;;;16.10;69.20;;;;;;4651833;30;20058;-73
2021/12/19 12:22:32;;;;;;;6.20;2.05;;;16.10;69.20;;;;;;4651264;30;20059;-73
2021/12/19 12:25:27;;;;;;;6.80;1.40;;;16.10;69.20;;;;;;4651088;30;20472;-72
2021/12/19 12:28:04;;;;;;;6.82;1.30;;;16.10;69.10;;;;;;4651320;30;20093;-72
2021/12/19 12:30:45;;;;;;;7.35;2.20;;;16.10;69.10;;;;;;4650935;30;20141;-75
2021/12/19 12:33:16;;;;;;;7.25;1.52;;;16.10;69.10;;;;;;4636222;30;20066;-72
2021/12/19 12:35:47;;;;;;;6.78;1.23;;;16.10;69.00;;;;;;4636289;30;20197;-72
2021/12/19 12:38:13;;;;;;;6.57;1.42;;;16.10;69.00;;;;;;4650902;30;20066;-72
2021/12/19 12:43:23;;;;;;;4.00;1.20;;;16.00;69.40;;;;;;4636143;30;20452;-72
2021/12/19 12:45:52;;;;;;;7.32;1.52;;;16.00;68.80;;;;;;4651512;30;20094;-72
2021/12/19 12:48:35;;;;;;;6.40;1.48;;;16.00;68.80;;;;;;4650242;30;20154;-73
2021/12/19 12:51:17;;;;;;;6.35;1.10;;;16.00;68.80;;;;;;4635780;30;20098;-73
2021/12/19 12:53:49;;;;;;;4.63;1.15;;;16.00;68.70;;;;;;4650004;30;20094;-72
2021/12/19 12:56:31;;;;;;;5.53;1.40;;;16.00;68.70;;;;;;4650968;30;20589;-73
2021/12/19 12:58:58;;;;;;;5.07;1.50;;;16.00;69.30;;;;;;4650409;30;20141;-71
2021/12/19 13:01:26;;;;;;;5.95;1.05;;;16.00;68.60;;;;;;4636105;30;20066;-74
2021/12/19 13:03:59;;;;;;;9.48;1.70;;;16.00;68.60;;;;;;4650859;30;20059;-70
2021/12/19 13:07:03;;;;;;;4.35;1.25;;;16.00;68.60;;;;;;4635804;30;20097;-72
2021/12/19 13:09:50;;;;;;;4.85;1.15;;;16.00;68.60;;;;;;4632595;30;20059;-71
2021/12/19 13:12:35;;;;;;;8.00;1.55;;;16.00;68.60;;;;;;4635443;30;20181;-72
2021/12/19 13:15:07;;;;;;;4.75;1.45;;;15.90;68.40;;;;;;4635611;30;20461;-71
2021/12/19 13:17:35;;;;;;;6.15;1.20;;;15.90;68.50;;;;;;4635753;30;20105;-71
2021/12/19 13:20:13;;;;;;;3.80;1.00;;;15.90;68.50;;;;;;4651040;30;20144;-71
2021/12/19 13:22:51;;;;;;;7.40;1.70;;;15.90;68.50;;;;;;4650367;30;20101;-73
2021/12/19 13:25:20;;;;;;;7.35;1.88;;;15.90;68.50;;;;;;4650491;30;20085;-71
2021/12/19 13:27:54;;;;;;;4.75;1.50;;;15.90;68.60;;;;;;4635949;30;20129;-73
2021/12/19 13:30:24;;;;;;;4.75;1.27;;;15.90;68.60;;;;;;4636248;30;20330;-73
2021/12/19 13:32:55;;;;;;;6.70;1.80;;;15.90;68.70;;;;;;4650510;30;20070;-73
2021/12/19 13:35:31;;;;;;;5.60;1.13;;;15.90;68.70;;;;;;4636223;30;20054;-72
2021/12/19 13:38:10;;;;;;;6.88;1.73;;;15.90;68.70;;;;;;4653736;30;20532;-71
2021/12/19 13:40:43;;;;;;;4.93;1.40;;;15.90;68.60;;;;;;4638797;30;20062;-73
2021/12/19 13:43:41;;;;;;;6.72;1.65;;;15.90;68.70;;;;;;4638893;30;20058;-72
2021/12/19 13:46:13;;;;;;;4.63;1.52;;;15.90;68.70;;;;;;4649221;30;20153;-71
2021/12/19 13:48:48;;;;;;;4.43;1.45;;;15.80;68.70;;;;;;4653892;30;20059;-72
2021/12/19 13:51:21;;;;;;;5.93;1.60;;;15.80;68.70;;;;;;4653679;30;20427;-71
2021/12/19 13:53:49;;;;;;;3.65;1.27;;;15.80;68.80;;;;;;4653680;30;20055;-72
2021/12/19 13:56:32;;;;;;;6.40;1.60;;;15.80;68.80;;;;;;4638817;30;20061;-71
2021/12/19 13:59:04;;;;;;;3.75;1.20;;;15.80;68.80;;;;;;4653236;30;20070;-71
2021/12/19 14:01:34;;;;;;;5.32;1.63;;;15.80;68.80;;;;;;4653489;30;20058;-71